sensor_id;sensor_type;location;lat;lon;timestamp;P1;durP1;ratioP1;P2;durP2;ratioP2
10416;SDS011;62605;49.432;8.680;2023-02-24T00:02:13;14.90;;;8.63;;
10416;SDS011;62605;49.432;8.680;2023-02-24T00:04:44;18.73;;;9.27;;
10416;SDS011;62605;49.432;8.680;2023-02-24T00:07:16;17.10;;;7.73;;
10416;SDS011;62605;49.432;8.680;2023-02-24T00:09:46;17.90;;;8.73;;
10416;SDS011;62605;49.432;8.680;2023-02-24T00:12:15;17.47;;;8.93;;
10416;SDS011;62605;49.432;8.680;2023-02-24T00:14:45;17.43;;;9.90;;
10416;SDS011;62605;49.432;8.680;2023-02-24T00:17:12;17.30;;;9.37;;
10416;SDS011;62605;49.432;8.680;2023-02-24T00:19:39;20.30;;;9.87;;
10416;SDS011;62605;49.432;8.680;2023-02-24T00:22:07;22.23;;;10.17;;
10416;SDS011;62605;49.432;8.680;2023-02-24T00:24:34;21.00;;;9.83;;
10416;SDS011;62605;49.432;8.680;2023-02-24T00:27:02;20.57;;;9.40;;
10416;SDS011;62605;49.432;8.680;2023-02-24T00:29:35;21.23;;;9.93;;
10416;SDS011;62605;49.432;8.680;2023-02-24T00:32:07;21.87;;;9.73;;
10416;SDS011;62605;49.432;8.680;2023-02-24T00:34:38;20.17;;;9.33;;
10416;SDS011;62605;49.432;8.680;2023-02-24T00:37:07;19.77;;;9.67;;
10416;SDS011;62605;49.432;8.680;2023-02-24T00:39:34;20.63;;;8.60;;
10416;SDS011;62605;49.432;8.680;2023-02-24T00:42:05;22.10;;;9.10;;
10416;SDS011;62605;49.432;8.680;2023-02-24T00:44:33;19.07;;;8.40;;
10416;SDS011;62605;49.432;8.680;2023-02-24T00:47:03;19.77;;;9.50;;
10416;SDS011;62605;49.432;8.680;2023-02-24T00:49:35;25.63;;;9.90;;
10416;SDS011;62605;49.432;8.680;2023-02-24T00:52:06;20.03;;;10.40;;
10416;SDS011;62605;49.432;8.680;2023-02-24T00:54:37;18.60;;;9.03;;
10416;SDS011;62605;49.432;8.680;2023-02-24T00:57:05;19.60;;;8.33;;
10416;SDS011;62605;49.432;8.680;2023-02-24T00:59:33;20.40;;;8.50;;
10416;SDS011;62605;49.432;8.680;2023-02-24T01:02:01;17.80;;;8.93;;
10416;SDS011;62605;49.432;8.680;2023-02-24T01:04:31;16.97;;;8.87;;
10416;SDS011;62605;49.432;8.680;2023-02-24T01:07:03;20.67;;;9.40;;
10416;SDS011;62605;49.432;8.680;2023-02-24T01:09:34;23.40;;;9.90;;
10416;SDS011;62605;49.432;8.680;2023-02-24T01:12:02;21.90;;;9.73;;
10416;SDS011;62605;49.432;8.680;2023-02-24T01:14:51;19.60;;;9.17;;
10416;SDS011;62605;49.432;8.680;2023-02-24T01:17:20;22.43;;;10.07;;
10416;SDS011;62605;49.432;8.680;2023-02-24T01:19:49;23.60;;;10.03;;
10416;SDS011;62605;49.432;8.680;2023-02-24T01:22:18;20.23;;;8.80;;
10416;SDS011;62605;49.432;8.680;2023-02-24T01:24:46;20.53;;;9.77;;
10416;SDS011;62605;49.432;8.680;2023-02-24T01:27:15;21.10;;;9.70;;
10416;SDS011;62605;49.432;8.680;2023-02-24T01:29:43;21.90;;;8.77;;
10416;SDS011;62605;49.432;8.680;2023-02-24T01:32:12;25.03;;;9.90;;
10416;SDS011;62605;49.432;8.680;2023-02-24T01:34:41;18.37;;;9.60;;
10416;SDS011;62605;49.432;8.680;2023-02-24T01:37:08;21.67;;;9.17;;
10416;SDS011;62605;49.432;8.680;2023-02-24T01:39:40;23.20;;;9.57;;
10416;SDS011;62605;49.432;8.680;2023-02-24T01:42:09;21.03;;;10.07;;
10416;SDS011;62605;49.432;8.680;2023-02-24T01:47:36;23.23;;;10.93;;
10416;SDS011;62605;49.432;8.680;2023-02-24T01:50:04;23.30;;;9.10;;
10416;SDS011;62605;49.432;8.680;2023-02-24T01:52:34;24.97;;;9.97;;
10416;SDS011;62605;49.432;8.680;2023-02-24T01:55:05;21.10;;;9.77;;
10416;SDS011;62605;49.432;8.680;2023-02-24T01:57:37;23.83;;;8.77;;
10416;SDS011;62605;49.432;8.680;2023-02-24T02:00:06;24.70;;;10.70;;
10416;SDS011;62605;49.432;8.680;2023-02-24T02:02:44;24.50;;;9.17;;
10416;SDS011;62605;49.432;8.680;2023-02-24T02:05:15;25.17;;;10.00;;
10416;SDS011;62605;49.432;8.680;2023-02-24T02:07:42;25.70;;;11.00;;
10416;SDS011;62605;49.432;8.680;2023-02-24T02:10:15;23.30;;;9.73;;
10416;SDS011;62605;49.432;8.680;2023-02-24T02:12:43;25.67;;;10.63;;
10416;SDS011;62605;49.432;8.680;2023-02-24T02:15:11;24.33;;;9.93;;
10416;SDS011;62605;49.432;8.680;2023-02-24T02:17:42;24.77;;;9.73;;
10416;SDS011;62605;49.432;8.680;2023-02-24T02:23:41;22.27;;;10.50;;
10416;SDS011;62605;49.432;8.680;2023-02-24T02:26:43;24.37;;;10.57;;
10416;SDS011;62605;49.432;8.680;2023-02-24T02:29:39;23.33;;;9.77;;
10416;SDS011;62605;49.432;8.680;2023-02-24T02:35:57;25.20;;;10.13;;
10416;SDS011;62605;49.432;8.680;2023-02-24T02:38:33;26.50;;;10.67;;
10416;SDS011;62605;49.432;8.680;2023-02-24T02:41:06;23.07;;;9.83;;
10416;SDS011;62605;49.432;8.680;2023-02-24T02:43:45;27.37;;;10.97;;
10416;SDS011;62605;49.432;8.680;2023-02-24T02:46:18;26.30;;;9.90;;
10416;SDS011;62605;49.432;8.680;2023-02-24T02:48:58;22.50;;;9.73;;
10416;SDS011;62605;49.432;8.680;2023-02-24T02:51:34;23.40;;;9.90;;
10416;SDS011;62605;49.432;8.680;2023-02-24T02:54:07;26.10;;;9.87;;
10416;SDS011;62605;49.432;8.680;2023-02-24T02:56:43;26.40;;;9.53;;
10416;SDS011;62605;49.432;8.680;2023-02-24T02:59:17;23.33;;;10.63;;
10416;SDS011;62605;49.432;8.680;2023-02-24T03:01:49;22.93;;;11.20;;
10416;SDS011;62605;49.432;8.680;2023-02-24T03:04:25;24.53;;;9.87;;
10416;SDS011;62605;49.432;8.680;2023-02-24T03:06:57;23.97;;;10.13;;
10416;SDS011;62605;49.432;8.680;2023-02-24T03:09:27;22.70;;;9.73;;
10416;SDS011;62605;49.432;8.680;2023-02-24T03:11:59;21.43;;;9.83;;
10416;SDS011;62605;49.432;8.680;2023-02-24T03:14:33;22.47;;;9.13;;
10416;SDS011;62605;49.432;8.680;2023-02-24T03:17:04;28.80;;;10.73;;
10416;SDS011;62605;49.432;8.680;2023-02-24T03:19:36;26.30;;;10.90;;
10416;SDS011;62605;49.432;8.680;2023-02-24T03:22:08;23.13;;;10.47;;
10416;SDS011;62605;49.432;8.680;2023-02-24T03:24:39;25.07;;;10.43;;
10416;SDS011;62605;49.432;8.680;2023-02-24T03:27:09;30.20;;;10.73;;
10416;SDS011;62605;49.432;8.680;2023-02-24T03:29:45;24.70;;;9.20;;
10416;SDS011;62605;49.432;8.680;2023-02-24T03:32:19;23.97;;;9.20;;
10416;SDS011;62605;49.432;8.680;2023-02-24T03:34:57;23.37;;;9.60;;
10416;SDS011;62605;49.432;8.680;2023-02-24T03:37:33;21.77;;;9.47;;
10416;SDS011;62605;49.432;8.680;2023-02-24T03:40:05;23.13;;;9.63;;
10416;SDS011;62605;49.432;8.680;2023-02-24T03:42:35;28.40;;;9.70;;
10416;SDS011;62605;49.432;8.680;2023-02-24T03:45:06;19.20;;;9.23;;
10416;SDS011;62605;49.432;8.680;2023-02-24T03:47:34;26.33;;;10.10;;
10416;SDS011;62605;49.432;8.680;2023-02-24T03:50:03;24.20;;;10.13;;
10416;SDS011;62605;49.432;8.680;2023-02-24T03:52:38;27.50;;;9.83;;
10416;SDS011;62605;49.432;8.680;2023-02-24T03:55:15;27.87;;;10.07;;
10416;SDS011;62605;49.432;8.680;2023-02-24T03:57:54;23.20;;;9.67;;
10416;SDS011;62605;49.432;8.680;2023-02-24T04:00:33;26.13;;;9.77;;
10416;SDS011;62605;49.432;8.680;2023-02-24T04:03:08;26.17;;;9.77;;
10416;SDS011;62605;49.432;8.680;2023-02-24T04:05:50;25.10;;;9.17;;
10416;SDS011;62605;49.432;8.680;2023-02-24T04:08:30;25.87;;;9.13;;
10416;SDS011;62605;49.432;8.680;2023-02-24T04:11:07;27.83;;;8.30;;
10416;SDS011;62605;49.432;8.680;2023-02-24T04:13:40;23.73;;;8.93;;
10416;SDS011;62605;49.432;8.680;2023-02-24T04:16:13;18.80;;;7.53;;
10416;SDS011;62605;49.432;8.680;2023-02-24T04:18:52;17.70;;;8.13;;
10416;SDS011;62605;49.432;8.680;2023-02-24T04:21:23;19.60;;;8.47;;
10416;SDS011;62605;49.432;8.680;2023-02-24T04:23:53;24.77;;;9.73;;
10416;SDS011;62605;49.432;8.680;2023-02-24T04:26:22;21.83;;;8.17;;
10416;SDS011;62605;49.432;8.680;2023-02-24T04:28:51;26.53;;;10.23;;
10416;SDS011;62605;49.432;8.680;2023-02-24T04:31:20;22.83;;;8.80;;
10416;SDS011;62605;49.432;8.680;2023-02-24T04:33:50;22.93;;;9.13;;
10416;SDS011;62605;49.432;8.680;2023-02-24T04:36:19;20.73;;;9.00;;
10416;SDS011;62605;49.432;8.680;2023-02-24T04:38:47;24.40;;;8.60;;
10416;SDS011;62605;49.432;8.680;2023-02-24T04:41:16;24.27;;;8.40;;
10416;SDS011;62605;49.432;8.680;2023-02-24T04:43:45;22.53;;;9.53;;
10416;SDS011;62605;49.432;8.680;2023-02-24T04:46:15;23.37;;;8.40;;
10416;SDS011;62605;49.432;8.680;2023-02-24T04:48:42;18.67;;;8.13;;
10416;SDS011;62605;49.432;8.680;2023-02-24T04:51:11;22.73;;;7.63;;
10416;SDS011;62605;49.432;8.680;2023-02-24T04:53:38;21.20;;;9.00;;
10416;SDS011;62605;49.432;8.680;2023-02-24T04:56:06;19.60;;;8.13;;
10416;SDS011;62605;49.432;8.680;2023-02-24T04:58:35;22.23;;;8.20;;
10416;SDS011;62605;49.432;8.680;2023-02-24T05:01:06;23.53;;;8.50;;
10416;SDS011;62605;49.432;8.680;2023-02-24T05:03:35;22.13;;;8.17;;
10416;SDS011;62605;49.432;8.680;2023-02-24T05:06:06;23.30;;;8.33;;
10416;SDS011;62605;49.432;8.680;2023-02-24T05:08:38;28.97;;;8.87;;
10416;SDS011;62605;49.432;8.680;2023-02-24T05:11:05;21.70;;;8.90;;
10416;SDS011;62605;49.432;8.680;2023-02-24T05:13:33;23.23;;;8.43;;
10416;SDS011;62605;49.432;8.680;2023-02-24T05:16:03;28.03;;;9.73;;
10416;SDS011;62605;49.432;8.680;2023-02-24T05:18:33;27.10;;;9.80;;
10416;SDS011;62605;49.432;8.680;2023-02-24T05:21:03;23.87;;;9.33;;
10416;SDS011;62605;49.432;8.680;2023-02-24T05:23:49;22.87;;;8.90;;
10416;SDS011;62605;49.432;8.680;2023-02-24T05:26:18;17.27;;;8.27;;
10416;SDS011;62605;49.432;8.680;2023-02-24T05:28:51;19.90;;;9.17;;
10416;SDS011;62605;49.432;8.680;2023-02-24T05:31:24;23.77;;;9.10;;
10416;SDS011;62605;49.432;8.680;2023-02-24T05:33:53;22.30;;;9.57;;
10416;SDS011;62605;49.432;8.680;2023-02-24T05:36:22;19.30;;;8.10;;
10416;SDS011;62605;49.432;8.680;2023-02-24T05:38:51;21.20;;;8.33;;
10416;SDS011;62605;49.432;8.680;2023-02-24T05:41:22;26.47;;;8.97;;
10416;SDS011;62605;49.432;8.680;2023-02-24T05:43:58;21.20;;;8.70;;
10416;SDS011;62605;49.432;8.680;2023-02-24T05:46:29;23.50;;;9.00;;
10416;SDS011;62605;49.432;8.680;2023-02-24T05:48:58;24.23;;;9.13;;
10416;SDS011;62605;49.432;8.680;2023-02-24T05:51:29;23.27;;;9.07;;
10416;SDS011;62605;49.432;8.680;2023-02-24T05:53:59;20.83;;;7.97;;
10416;SDS011;62605;49.432;8.680;2023-02-24T05:56:28;19.27;;;8.63;;
10416;SDS011;62605;49.432;8.680;2023-02-24T05:58:58;21.93;;;8.07;;
10416;SDS011;62605;49.432;8.680;2023-02-24T06:01:30;25.20;;;9.87;;
10416;SDS011;62605;49.432;8.680;2023-02-24T06:04:00;24.77;;;9.97;;
10416;SDS011;62605;49.432;8.680;2023-02-24T06:06:30;24.33;;;8.37;;
10416;SDS011;62605;49.432;8.680;2023-02-24T06:09:02;20.27;;;8.97;;
10416;SDS011;62605;49.432;8.680;2023-02-24T06:11:34;23.20;;;8.87;;
10416;SDS011;62605;49.432;8.680;2023-02-24T06:14:04;25.00;;;9.17;;
10416;SDS011;62605;49.432;8.680;2023-02-24T06:16:33;20.57;;;8.93;;
10416;SDS011;62605;49.432;8.680;2023-02-24T06:19:01;21.40;;;9.00;;
10416;SDS011;62605;49.432;8.680;2023-02-24T06:21:29;23.07;;;9.60;;
10416;SDS011;62605;49.432;8.680;2023-02-24T06:23:57;24.53;;;8.30;;
10416;SDS011;62605;49.432;8.680;2023-02-24T06:26:25;23.93;;;8.23;;
10416;SDS011;62605;49.432;8.680;2023-02-24T06:28:54;19.90;;;8.23;;
10416;SDS011;62605;49.432;8.680;2023-02-24T06:31:25;21.73;;;7.73;;
10416;SDS011;62605;49.432;8.680;2023-02-24T06:33:53;23.87;;;8.23;;
10416;SDS011;62605;49.432;8.680;2023-02-24T06:36:20;24.43;;;9.10;;
10416;SDS011;62605;49.432;8.680;2023-02-24T06:38:48;27.80;;;8.70;;
10416;SDS011;62605;49.432;8.680;2023-02-24T06:41:16;22.83;;;8.37;;
10416;SDS011;62605;49.432;8.680;2023-02-24T06:43:44;21.30;;;7.57;;
10416;SDS011;62605;49.432;8.680;2023-02-24T06:46:12;23.33;;;9.13;;
10416;SDS011;62605;49.432;8.680;2023-02-24T06:48:42;26.37;;;9.43;;
10416;SDS011;62605;49.432;8.680;2023-02-24T06:51:09;22.33;;;8.50;;
10416;SDS011;62605;49.432;8.680;2023-02-24T06:53:39;22.13;;;8.70;;
10416;SDS011;62605;49.432;8.680;2023-02-24T06:56:08;26.63;;;10.03;;
10416;SDS011;62605;49.432;8.680;2023-02-24T06:58:39;20.77;;;8.57;;
10416;SDS011;62605;49.432;8.680;2023-02-24T07:01:08;21.77;;;8.83;;
10416;SDS011;62605;49.432;8.680;2023-02-24T07:03:37;18.90;;;8.30;;
10416;SDS011;62605;49.432;8.680;2023-02-24T07:06:13;25.07;;;8.20;;
10416;SDS011;62605;49.432;8.680;2023-02-24T07:08:48;23.27;;;8.53;;
10416;SDS011;62605;49.432;8.680;2023-02-24T07:11:16;22.77;;;8.80;;
10416;SDS011;62605;49.432;8.680;2023-02-24T07:13:43;27.60;;;9.17;;
10416;SDS011;62605;49.432;8.680;2023-02-24T07:16:12;24.37;;;10.03;;
10416;SDS011;62605;49.432;8.680;2023-02-24T07:18:40;23.77;;;9.53;;
10416;SDS011;62605;49.432;8.680;2023-02-24T07:21:08;31.90;;;10.53;;
10416;SDS011;62605;49.432;8.680;2023-02-24T07:23:38;24.90;;;10.33;;
10416;SDS011;62605;49.432;8.680;2023-02-24T07:26:06;24.67;;;9.97;;
10416;SDS011;62605;49.432;8.680;2023-02-24T07:28:36;29.97;;;9.80;;
10416;SDS011;62605;49.432;8.680;2023-02-24T07:31:05;25.27;;;10.47;;
10416;SDS011;62605;49.432;8.680;2023-02-24T07:33:33;22.50;;;9.27;;
10416;SDS011;62605;49.432;8.680;2023-02-24T07:36:02;28.07;;;9.47;;
10416;SDS011;62605;49.432;8.680;2023-02-24T07:38:33;23.63;;;9.03;;
10416;SDS011;62605;49.432;8.680;2023-02-24T07:41:03;22.70;;;8.97;;
10416;SDS011;62605;49.432;8.680;2023-02-24T07:43:32;24.27;;;9.23;;
10416;SDS011;62605;49.432;8.680;2023-02-24T07:46:06;22.00;;;8.83;;
10416;SDS011;62605;49.432;8.680;2023-02-24T07:48:35;26.10;;;10.33;;
10416;SDS011;62605;49.432;8.680;2023-02-24T07:51:05;28.80;;;10.60;;
10416;SDS011;62605;49.432;8.680;2023-02-24T07:53:33;27.53;;;10.20;;
10416;SDS011;62605;49.432;8.680;2023-02-24T07:56:00;22.03;;;9.70;;
10416;SDS011;62605;49.432;8.680;2023-02-24T07:58:38;30.60;;;9.83;;
10416;SDS011;62605;49.432;8.680;2023-02-24T08:01:06;27.53;;;9.80;;
10416;SDS011;62605;49.432;8.680;2023-02-24T08:03:46;23.10;;;8.17;;
10416;SDS011;62605;49.432;8.680;2023-02-24T08:06:14;23.97;;;8.70;;
10416;SDS011;62605;49.432;8.680;2023-02-24T08:08:51;27.03;;;9.93;;
10416;SDS011;62605;49.432;8.680;2023-02-24T08:11:42;22.77;;;9.70;;
10416;SDS011;62605;49.432;8.680;2023-02-24T08:14:16;25.17;;;10.63;;
10416;SDS011;62605;49.432;8.680;2023-02-24T08:16:44;26.93;;;9.37;;
10416;SDS011;62605;49.432;8.680;2023-02-24T08:19:14;23.73;;;8.90;;
10416;SDS011;62605;49.432;8.680;2023-02-24T08:21:45;28.10;;;10.77;;
10416;SDS011;62605;49.432;8.680;2023-02-24T08:24:15;24.77;;;10.17;;
10416;SDS011;62605;49.432;8.680;2023-02-24T08:26:45;29.07;;;9.73;;
10416;SDS011;62605;49.432;8.680;2023-02-24T08:29:28;24.47;;;10.27;;
10416;SDS011;62605;49.432;8.680;2023-02-24T08:32:04;24.17;;;11.10;;
10416;SDS011;62605;49.432;8.680;2023-02-24T08:34:33;22.40;;;9.37;;
10416;SDS011;62605;49.432;8.680;2023-02-24T08:37:00;27.80;;;10.30;;
10416;SDS011;62605;49.432;8.680;2023-02-24T08:39:28;24.13;;;10.13;;
10416;SDS011;62605;49.432;8.680;2023-02-24T08:41:56;20.90;;;10.03;;
10416;SDS011;62605;49.432;8.680;2023-02-24T08:44:24;27.73;;;10.93;;
10416;SDS011;62605;49.432;8.680;2023-02-24T08:46:52;25.80;;;9.63;;
10416;SDS011;62605;49.432;8.680;2023-02-24T08:49:20;24.70;;;9.83;;
10416;SDS011;62605;49.432;8.680;2023-02-24T08:51:50;24.17;;;9.80;;
10416;SDS011;62605;49.432;8.680;2023-02-24T08:54:18;22.53;;;10.13;;
10416;SDS011;62605;49.432;8.680;2023-02-24T08:56:51;27.70;;;11.20;;
10416;SDS011;62605;49.432;8.680;2023-02-24T08:59:23;28.33;;;11.80;;
10416;SDS011;62605;49.432;8.680;2023-02-24T09:02:02;25.13;;;10.50;;
10416;SDS011;62605;49.432;8.680;2023-02-24T09:04:43;22.47;;;10.23;;
10416;SDS011;62605;49.432;8.680;2023-02-24T09:07:12;27.13;;;11.20;;
10416;SDS011;62605;49.432;8.680;2023-02-24T09:09:40;21.70;;;10.13;;
10416;SDS011;62605;49.432;8.680;2023-02-24T09:12:09;18.87;;;9.43;;
10416;SDS011;62605;49.432;8.680;2023-02-24T09:14:48;20.20;;;9.17;;
10416;SDS011;62605;49.432;8.680;2023-02-24T09:17:19;22.30;;;9.23;;
10416;SDS011;62605;49.432;8.680;2023-02-24T09:20:04;23.80;;;9.97;;
10416;SDS011;62605;49.432;8.680;2023-02-24T09:22:56;25.50;;;10.20;;
10416;SDS011;62605;49.432;8.680;2023-02-24T09:25:27;21.20;;;9.07;;
10416;SDS011;62605;49.432;8.680;2023-02-24T09:28:10;26.57;;;10.33;;
10416;SDS011;62605;49.432;8.680;2023-02-24T09:30:42;24.93;;;9.87;;
10416;SDS011;62605;49.432;8.680;2023-02-24T09:33:19;22.17;;;9.50;;
10416;SDS011;62605;49.432;8.680;2023-02-24T09:35:52;21.57;;;9.50;;
10416;SDS011;62605;49.432;8.680;2023-02-24T09:38:34;22.93;;;9.23;;
10416;SDS011;62605;49.432;8.680;2023-02-24T09:41:26;18.10;;;8.00;;
10416;SDS011;62605;49.432;8.680;2023-02-24T09:43:58;21.63;;;8.97;;
10416;SDS011;62605;49.432;8.680;2023-02-24T09:46:30;21.23;;;9.10;;
10416;SDS011;62605;49.432;8.680;2023-02-24T09:49:04;19.90;;;9.00;;
10416;SDS011;62605;49.432;8.680;2023-02-24T09:51:38;21.70;;;9.73;;
10416;SDS011;62605;49.432;8.680;2023-02-24T09:54:10;18.07;;;8.23;;
10416;SDS011;62605;49.432;8.680;2023-02-24T09:56:41;19.87;;;9.10;;
10416;SDS011;62605;49.432;8.680;2023-02-24T09:59:23;20.23;;;9.33;;
10416;SDS011;62605;49.432;8.680;2023-02-24T10:02:02;21.63;;;10.33;;
10416;SDS011;62605;49.432;8.680;2023-02-24T10:04:50;26.80;;;10.20;;
10416;SDS011;62605;49.432;8.680;2023-02-24T10:07:32;24.47;;;9.97;;
10416;SDS011;62605;49.432;8.680;2023-02-24T10:10:10;22.47;;;9.00;;
10416;SDS011;62605;49.432;8.680;2023-02-24T10:12:51;27.03;;;10.40;;
10416;SDS011;62605;49.432;8.680;2023-02-24T10:15:25;25.53;;;10.43;;
10416;SDS011;62605;49.432;8.680;2023-02-24T10:18:38;25.50;;;10.30;;
10416;SDS011;62605;49.432;8.680;2023-02-24T10:21:15;25.80;;;10.67;;
10416;SDS011;62605;49.432;8.680;2023-02-24T10:23:58;23.03;;;10.33;;
10416;SDS011;62605;49.432;8.680;2023-02-24T10:26:35;26.33;;;10.57;;
10416;SDS011;62605;49.432;8.680;2023-02-24T10:29:14;23.87;;;10.93;;
10416;SDS011;62605;49.432;8.680;2023-02-24T10:31:55;26.77;;;10.57;;
10416;SDS011;62605;49.432;8.680;2023-02-24T10:34:34;32.40;;;12.60;;
10416;SDS011;62605;49.432;8.680;2023-02-24T10:37:01;28.20;;;11.67;;
10416;SDS011;62605;49.432;8.680;2023-02-24T10:39:36;24.50;;;11.83;;
10416;SDS011;62605;49.432;8.680;2023-02-24T10:42:07;26.30;;;10.97;;
10416;SDS011;62605;49.432;8.680;2023-02-24T10:44:42;27.23;;;10.30;;
10416;SDS011;62605;49.432;8.680;2023-02-24T10:47:18;23.97;;;10.80;;
10416;SDS011;62605;49.432;8.680;2023-02-24T10:49:57;26.77;;;11.17;;
10416;SDS011;62605;49.432;8.680;2023-02-24T10:52:25;27.77;;;10.27;;
10416;SDS011;62605;49.432;8.680;2023-02-24T10:55:18;23.83;;;11.07;;
10416;SDS011;62605;49.432;8.680;2023-02-24T10:57:53;24.60;;;11.10;;
10416;SDS011;62605;49.432;8.680;2023-02-24T11:00:36;22.43;;;10.43;;
10416;SDS011;62605;49.432;8.680;2023-02-24T11:03:25;27.07;;;10.20;;
10416;SDS011;62605;49.432;8.680;2023-02-24T11:06:17;24.77;;;11.47;;
10416;SDS011;62605;49.432;8.680;2023-02-24T11:09:12;25.47;;;10.93;;
10416;SDS011;62605;49.432;8.680;2023-02-24T11:11:57;27.17;;;12.13;;
10416;SDS011;62605;49.432;8.680;2023-02-24T11:14:46;23.97;;;10.87;;
10416;SDS011;62605;49.432;8.680;2023-02-24T11:17:34;29.03;;;11.43;;
10416;SDS011;62605;49.432;8.680;2023-02-24T11:20:04;23.83;;;10.40;;
10416;SDS011;62605;49.432;8.680;2023-02-24T11:22:38;22.70;;;10.57;;
10416;SDS011;62605;49.432;8.680;2023-02-24T11:25:09;27.77;;;10.87;;
10416;SDS011;62605;49.432;8.680;2023-02-24T11:27:41;26.33;;;11.73;;
10416;SDS011;62605;49.432;8.680;2023-02-24T11:30:14;26.67;;;10.60;;
10416;SDS011;62605;49.432;8.680;2023-02-24T11:32:57;20.70;;;9.57;;
10416;SDS011;62605;49.432;8.680;2023-02-24T11:35:35;30.87;;;11.40;;
10416;SDS011;62605;49.432;8.680;2023-02-24T11:38:13;21.77;;;9.40;;
10416;SDS011;62605;49.432;8.680;2023-02-24T11:40:53;23.37;;;9.97;;
10416;SDS011;62605;49.432;8.680;2023-02-24T11:43:26;20.67;;;9.23;;
10416;SDS011;62605;49.432;8.680;2023-02-24T11:45:57;20.33;;;8.57;;
10416;SDS011;62605;49.432;8.680;2023-02-24T11:48:30;20.33;;;8.90;;
10416;SDS011;62605;49.432;8.680;2023-02-24T11:51:01;22.27;;;9.50;;
10416;SDS011;62605;49.432;8.680;2023-02-24T11:53:33;17.43;;;8.10;;
10416;SDS011;62605;49.432;8.680;2023-02-24T11:56:02;20.90;;;8.70;;
10416;SDS011;62605;49.432;8.680;2023-02-24T11:58:39;21.90;;;8.30;;
10416;SDS011;62605;49.432;8.680;2023-02-24T12:01:12;17.07;;;7.33;;
10416;SDS011;62605;49.432;8.680;2023-02-24T12:03:49;20.93;;;8.30;;
10416;SDS011;62605;49.432;8.680;2023-02-24T12:06:20;23.53;;;9.37;;
10416;SDS011;62605;49.432;8.680;2023-02-24T12:08:56;17.50;;;7.10;;
10416;SDS011;62605;49.432;8.680;2023-02-24T12:11:34;16.23;;;7.20;;
10416;SDS011;62605;49.432;8.680;2023-02-24T12:14:14;20.20;;;7.63;;
10416;SDS011;62605;49.432;8.680;2023-02-24T12:16:50;17.57;;;8.23;;
10416;SDS011;62605;49.432;8.680;2023-02-24T12:19:26;16.20;;;7.43;;
10416;SDS011;62605;49.432;8.680;2023-02-24T12:22:00;17.50;;;7.97;;
10416;SDS011;62605;49.432;8.680;2023-02-24T12:24:34;15.83;;;7.20;;
10416;SDS011;62605;49.432;8.680;2023-02-24T12:27:08;14.80;;;7.07;;
10416;SDS011;62605;49.432;8.680;2023-02-24T12:29:46;18.63;;;8.50;;
10416;SDS011;62605;49.432;8.680;2023-02-24T12:32:39;21.00;;;8.63;;
10416;SDS011;62605;49.432;8.680;2023-02-24T12:35:18;17.77;;;8.47;;
10416;SDS011;62605;49.432;8.680;2023-02-24T12:37:58;17.27;;;8.33;;
10416;SDS011;62605;49.432;8.680;2023-02-24T12:40:38;17.47;;;7.33;;
10416;SDS011;62605;49.432;8.680;2023-02-24T12:43:15;18.50;;;7.03;;
10416;SDS011;62605;49.432;8.680;2023-02-24T12:45:50;19.07;;;7.63;;
10416;SDS011;62605;49.432;8.680;2023-02-24T12:48:32;15.93;;;6.90;;
10416;SDS011;62605;49.432;8.680;2023-02-24T12:51:15;19.27;;;8.00;;
10416;SDS011;62605;49.432;8.680;2023-02-24T12:53:48;17.40;;;7.63;;
10416;SDS011;62605;49.432;8.680;2023-02-24T12:56:26;21.03;;;8.20;;
10416;SDS011;62605;49.432;8.680;2023-02-24T12:59:02;18.50;;;7.90;;
10416;SDS011;62605;49.432;8.680;2023-02-24T13:01:34;15.67;;;7.77;;
10416;SDS011;62605;49.432;8.680;2023-02-24T13:04:09;21.30;;;7.80;;
10416;SDS011;62605;49.432;8.680;2023-02-24T13:06:54;18.67;;;7.93;;
10416;SDS011;62605;49.432;8.680;2023-02-24T13:09:31;19.17;;;8.07;;
10416;SDS011;62605;49.432;8.680;2023-02-24T13:12:11;24.03;;;8.93;;
10416;SDS011;62605;49.432;8.680;2023-02-24T13:14:42;17.77;;;7.73;;
10416;SDS011;62605;49.432;8.680;2023-02-24T13:17:15;17.27;;;8.30;;
10416;SDS011;62605;49.432;8.680;2023-02-24T13:19:45;17.83;;;7.13;;
10416;SDS011;62605;49.432;8.680;2023-02-24T13:22:20;17.17;;;6.77;;
10416;SDS011;62605;49.432;8.680;2023-02-24T13:27:54;17.93;;;6.70;;
10416;SDS011;62605;49.432;8.680;2023-02-24T13:30:26;18.23;;;6.97;;
10416;SDS011;62605;49.432;8.680;2023-02-24T13:33:03;19.63;;;7.70;;
10416;SDS011;62605;49.432;8.680;2023-02-24T13:35:47;17.40;;;6.80;;
10416;SDS011;62605;49.432;8.680;2023-02-24T13:38:22;16.43;;;7.77;;
10416;SDS011;62605;49.432;8.680;2023-02-24T13:41:21;15.87;;;6.27;;
10416;SDS011;62605;49.432;8.680;2023-02-24T13:44:02;14.50;;;6.37;;
10416;SDS011;62605;49.432;8.680;2023-02-24T13:46:48;15.87;;;6.67;;
10416;SDS011;62605;49.432;8.680;2023-02-24T13:49:31;16.70;;;6.67;;
10416;SDS011;62605;49.432;8.680;2023-02-24T13:52:06;13.23;;;7.00;;
10416;SDS011;62605;49.432;8.680;2023-02-24T13:54:52;15.60;;;6.53;;
10416;SDS011;62605;49.432;8.680;2023-02-24T14:00:32;17.17;;;7.47;;
10416;SDS011;62605;49.432;8.680;2023-02-24T14:03:17;15.87;;;7.00;;
10416;SDS011;62605;49.432;8.680;2023-02-24T14:05:47;18.73;;;7.37;;
10416;SDS011;62605;49.432;8.680;2023-02-24T14:08:17;18.37;;;7.63;;
10416;SDS011;62605;49.432;8.680;2023-02-24T14:10:48;15.53;;;6.87;;
10416;SDS011;62605;49.432;8.680;2023-02-24T14:13:21;14.67;;;6.60;;
10416;SDS011;62605;49.432;8.680;2023-02-24T14:15:55;15.67;;;7.13;;
10416;SDS011;62605;49.432;8.680;2023-02-24T14:18:25;16.83;;;6.20;;
10416;SDS011;62605;49.432;8.680;2023-02-24T14:20:54;13.27;;;6.20;;
10416;SDS011;62605;49.432;8.680;2023-02-24T14:23:24;13.47;;;5.63;;
10416;SDS011;62605;49.432;8.680;2023-02-24T14:25:52;11.97;;;6.13;;
10416;SDS011;62605;49.432;8.680;2023-02-24T14:28:22;13.67;;;5.30;;
10416;SDS011;62605;49.432;8.680;2023-02-24T14:30:53;7.93;;;5.03;;
10416;SDS011;62605;49.432;8.680;2023-02-24T14:33:24;12.83;;;5.80;;
10416;SDS011;62605;49.432;8.680;2023-02-24T14:35:55;14.80;;;6.70;;
10416;SDS011;62605;49.432;8.680;2023-02-24T14:38:26;13.23;;;5.80;;
10416;SDS011;62605;49.432;8.680;2023-02-24T14:40:58;14.83;;;6.30;;
10416;SDS011;62605;49.432;8.680;2023-02-24T14:43:26;13.43;;;7.07;;
10416;SDS011;62605;49.432;8.680;2023-02-24T14:45:55;12.70;;;5.63;;
10416;SDS011;62605;49.432;8.680;2023-02-24T14:48:23;16.43;;;6.43;;
10416;SDS011;62605;49.432;8.680;2023-02-24T14:50:51;12.40;;;5.93;;
10416;SDS011;62605;49.432;8.680;2023-02-24T14:53:20;13.03;;;6.10;;
10416;SDS011;62605;49.432;8.680;2023-02-24T14:55:50;13.73;;;6.20;;
10416;SDS011;62605;49.432;8.680;2023-02-24T14:58:20;12.47;;;5.30;;
10416;SDS011;62605;49.432;8.680;2023-02-24T15:00:55;15.30;;;5.50;;
10416;SDS011;62605;49.432;8.680;2023-02-24T15:03:27;11.47;;;5.00;;
10416;SDS011;62605;49.432;8.680;2023-02-24T15:06:03;9.67;;;4.37;;
10416;SDS011;62605;49.432;8.680;2023-02-24T15:08:33;13.63;;;5.53;;
10416;SDS011;62605;49.432;8.680;2023-02-24T15:11:05;12.23;;;6.07;;
10416;SDS011;62605;49.432;8.680;2023-02-24T15:13:44;13.13;;;5.40;;
10416;SDS011;62605;49.432;8.680;2023-02-24T15:16:16;11.33;;;5.70;;
10416;SDS011;62605;49.432;8.680;2023-02-24T15:18:48;12.87;;;5.53;;
10416;SDS011;62605;49.432;8.680;2023-02-24T15:21:21;12.70;;;5.17;;
10416;SDS011;62605;49.432;8.680;2023-02-24T15:23:57;7.47;;;4.10;;